createdAt,value
2022-08-03T00:00:58.551Z,69.09
2022-08-03T00:06:04.551Z,69.20
2022-08-03T00:10:59.437Z,69.49
2022-08-03T00:15:58.366Z,69.79
2022-08-03T00:20:58.315Z,69.69
2022-08-03T00:25:58.237Z,69.69
2022-08-03T00:30:58.169Z,70.09
2022-08-03T00:35:58.137Z,70.03
2022-08-03T00:40:58.047Z,70.29
2022-08-03T00:45:57.980Z,70.53
2022-08-03T00:50:57.921Z,70.76
2022-08-03T00:55:57.853Z,70.95
2022-08-03T01:00:57.846Z,71.06
2022-08-03T01:05:57.740Z,71.36
2022-08-03T01:10:57.673Z,71.69
2022-08-03T01:15:57.600Z,71.36
2022-08-03T01:20:57.541Z,71.26
2022-08-03T01:25:57.480Z,71.19
2022-08-03T01:30:57.421Z,71.09
2022-08-03T01:35:57.371Z,71.29
2022-08-03T01:40:57.292Z,71.72
2022-08-03T01:45:57.308Z,71.62
2022-08-03T01:50:57.237Z,72.06
2022-08-03T01:55:57.115Z,72.49
2022-08-03T02:00:57.055Z,72.89
2022-08-03T02:06:17.863Z,73.22
2022-08-03T02:10:58.004Z,73.53
2022-08-03T02:15:56.879Z,73.72
2022-08-03T02:20:56.803Z,74.03
2022-08-03T02:25:56.735Z,74.46
2022-08-03T02:30:56.665Z,74.56
2022-08-03T02:35:56.677Z,74.76
2022-08-03T02:40:56.550Z,74.96
2022-08-03T02:45:56.484Z,75.00
2022-08-03T02:50:56.440Z,75.20
2022-08-03T02:55:56.336Z,75.60
2022-08-03T03:00:56.364Z,75.90
2022-08-03T03:05:57.740Z,75.93
2022-08-03T03:10:56.281Z,76.04
2022-08-03T03:15:56.132Z,76.34
2022-08-03T03:20:56.049Z,76.64
2022-08-03T03:25:55.965Z,77.04
2022-08-03T03:30:55.926Z,77.17
2022-08-03T03:35:55.848Z,77.28
2022-08-03T03:40:55.774Z,77.48
2022-08-03T03:45:55.713Z,77.87
2022-08-03T03:50:55.665Z,78.08
2022-08-03T03:55:59.653Z,78.28
2022-08-03T04:00:56.639Z,78.08
2022-08-03T04:05:55.468Z,78.22
2022-08-03T04:10:55.410Z,78.31
2022-08-03T04:15:55.343Z,78.72
2022-08-03T04:20:55.272Z,78.61
2022-08-03T04:25:55.210Z,78.88
2022-08-03T04:30:55.163Z,78.78
2022-08-03T04:36:01.692Z,78.68
2022-08-03T04:40:56.220Z,78.88
2022-08-03T04:45:54.983Z,78.88
2022-08-03T04:50:54.940Z,78.94
2022-08-03T04:55:54.853Z,79.24
2022-08-03T05:00:54.792Z,79.14
2022-08-03T05:06:01.859Z,79.14
2022-08-03T05:10:55.655Z,79.00
2022-08-03T05:15:54.560Z,79.30
2022-08-03T05:20:54.543Z,79.21
2022-08-03T05:25:54.453Z,78.97
2022-08-03T05:30:54.393Z,79.06
2022-08-03T05:35:56.072Z,79.03
2022-08-03T05:40:57.253Z,78.83
2022-08-03T05:46:11.407Z,78.59
2022-08-03T05:50:55.146Z,78.36
2022-08-03T05:55:56.964Z,77.62
2022-08-03T06:00:55.100Z,77.18
2022-08-03T06:06:00.425Z,76.65
2022-08-03T06:10:54.904Z,75.81
2022-08-03T06:15:53.831Z,75.37
2022-08-03T06:20:53.764Z,75.31
2022-08-03T06:25:53.693Z,74.17
2022-08-03T06:30:53.639Z,73.24
2022-08-03T06:35:53.584Z,72.87
2022-08-03T06:40:53.518Z,72.24
2022-08-03T06:45:53.499Z,71.08
2022-08-03T06:50:53.420Z,70.85
2022-08-03T06:55:54.992Z,69.98
2022-08-03T07:00:53.262Z,67.87
2022-08-03T07:05:53.196Z,67.44
2022-08-03T07:10:53.145Z,66.78
2022-08-03T07:15:55.442Z,65.17
2022-08-03T07:20:53.018Z,65.34
2022-08-03T07:25:52.972Z,63.92
2022-08-03T07:30:52.917Z,62.97
2022-08-03T07:35:52.886Z,62.55
2022-08-03T07:40:52.792Z,61.63
2022-08-03T07:45:52.749Z,61.30
2022-08-03T07:50:52.692Z,59.86
2022-08-03T07:55:52.629Z,58.95
2022-08-03T08:00:52.569Z,57.12
2022-08-03T08:05:52.482Z,57.68
2022-08-03T08:10:57.814Z,57.34
2022-08-03T08:15:53.342Z,56.30
2022-08-03T08:20:52.287Z,54.02
2022-08-03T08:25:52.302Z,52.69
2022-08-03T08:30:52.231Z,51.95
2022-08-03T08:35:52.131Z,50.07
2022-08-03T08:40:52.073Z,50.32
2022-08-03T08:45:51.996Z,48.34
2022-08-03T08:50:51.952Z,47.83
2022-08-03T08:55:58.544Z,46.61
2022-08-03T09:00:52.878Z,45.71
2022-08-03T09:05:56.233Z,44.71
2022-08-03T09:10:51.695Z,44.86
2022-08-03T09:16:01.206Z,42.68
2022-08-03T09:20:52.577Z,43.15
2022-08-03T09:25:51.523Z,42.03
2022-08-03T09:30:51.469Z,41.63
2022-08-03T09:35:54.053Z,40.03
2022-08-03T09:40:53.819Z,40.19
2022-08-03T09:45:52.310Z,38.43
2022-08-03T09:50:58.495Z,40.05
2022-08-03T09:56:33.495Z,37.34
2022-08-03T10:00:52.205Z,37.24
2022-08-03T10:05:52.265Z,38.20
2022-08-03T10:10:51.014Z,37.01
2022-08-03T10:16:21.601Z,38.54
2022-08-03T10:20:51.908Z,39.28
2022-08-03T10:25:50.878Z,38.48
2022-08-03T10:30:50.830Z,39.41
2022-08-03T10:35:50.761Z,39.59
2022-08-03T10:40:53.589Z,37.23
2022-08-03T10:45:51.607Z,37.21
2022-08-03T10:50:50.552Z,36.13
2022-08-03T10:55:50.488Z,35.24
2022-08-03T11:00:50.507Z,35.61
2022-08-03T11:05:50.457Z,36.57
2022-08-03T11:10:50.384Z,34.86
2022-08-03T11:15:50.295Z,35.84
2022-08-03T11:20:50.250Z,35.61
2022-08-03T11:25:55.030Z,34.61
2022-08-03T11:30:51.157Z,34.78
2022-08-03T11:35:50.050Z,34.50
2022-08-03T11:40:50.009Z,34.11
2022-08-03T11:45:49.945Z,33.81
2022-08-03T11:50:49.907Z,33.03
2022-08-03T11:55:49.878Z,32.65
2022-08-03T12:00:49.766Z,33.65
2022-08-03T12:05:51.663Z,33.55
2022-08-03T12:10:49.736Z,33.53
2022-08-03T12:15:49.627Z,32.78
2022-08-03T12:20:49.593Z,32.70
2022-08-03T12:25:49.691Z,34.34
2022-08-03T12:30:49.491Z,34.53
2022-08-03T12:35:52.610Z,32.71
2022-08-03T12:40:50.348Z,33.10
2022-08-03T12:45:56.482Z,33.39
2022-08-03T12:50:53.668Z,34.05
2022-08-03T12:56:05.005Z,32.21
2022-08-03T13:00:50.090Z,32.51
2022-08-03T13:05:49.031Z,31.73
2022-08-03T13:10:48.994Z,31.65
2022-08-03T13:15:49.093Z,31.46
2022-08-03T13:20:48.895Z,32.52
2022-08-03T13:25:55.275Z,31.27
2022-08-03T13:30:49.769Z,31.09
2022-08-03T13:35:48.712Z,32.34
2022-08-03T13:40:50.073Z,32.44
2022-08-03T13:45:51.410Z,31.76
2022-08-03T13:50:49.547Z,32.73
2022-08-03T13:55:48.495Z,31.96
2022-08-03T14:00:48.772Z,32.54
2022-08-03T14:05:48.368Z,32.34
2022-08-03T14:10:48.313Z,31.38
2022-08-03T14:15:50.947Z,31.30
2022-08-03T14:20:53.039Z,31.09
2022-08-03T14:25:51.596Z,30.70
2022-08-03T14:30:48.154Z,31.01
2022-08-03T14:35:48.074Z,30.43
2022-08-03T14:40:48.050Z,31.51
2022-08-03T14:45:47.918Z,31.80
2022-08-03T14:50:51.345Z,31.60
2022-08-03T14:55:49.601Z,31.99
2022-08-03T15:00:47.754Z,30.75
2022-08-03T15:05:47.677Z,31.81
2022-08-03T15:10:47.632Z,31.81
2022-08-03T15:15:47.665Z,31.44
2022-08-03T15:20:47.603Z,32.21
2022-08-03T15:26:29.500Z,32.04
2022-08-03T15:30:48.385Z,32.52
2022-08-03T15:35:47.342Z,32.15
2022-08-03T15:40:47.280Z,32.15
2022-08-03T15:45:47.253Z,31.59
2022-08-03T15:50:47.241Z,32.67
2022-08-03T15:55:47.085Z,34.22
2022-08-03T16:00:47.053Z,33.36
2022-08-03T16:05:46.983Z,33.28
2022-08-03T16:10:46.922Z,33.49
2022-08-03T16:15:46.856Z,33.88
2022-08-03T16:20:46.828Z,33.90
2022-08-03T16:25:49.293Z,34.11
2022-08-03T16:30:46.707Z,33.43
2022-08-03T16:35:46.641Z,34.32
2022-08-03T16:40:46.577Z,34.53
2022-08-03T16:45:46.630Z,35.50
2022-08-03T16:50:46.465Z,34.45
2022-08-03T16:55:53.378Z,35.05
2022-08-03T17:00:47.389Z,36.04
2022-08-03T17:05:47.693Z,34.69
2022-08-03T17:10:46.342Z,35.77
2022-08-03T17:15:57.921Z,36.57
2022-08-03T17:20:47.173Z,35.12
2022-08-03T17:26:01.724Z,36.51
2022-08-03T17:30:46.978Z,36.21
2022-08-03T17:35:45.901Z,38.18
2022-08-03T17:40:50.234Z,37.91
2022-08-03T17:45:52.996Z,38.30
2022-08-03T17:50:46.756Z,38.32
2022-08-03T17:55:55.980Z,37.75
2022-08-03T18:00:46.637Z,38.55
2022-08-03T18:06:11.860Z,39.14
2022-08-03T18:10:49.922Z,39.35
2022-08-03T18:15:45.452Z,39.56
2022-08-03T18:25:51.672Z,39.59
2022-08-03T18:30:54.483Z,39.22
2022-08-03T18:35:53.603Z,39.72
2022-08-03T18:40:48.626Z,40.33
2022-08-03T18:45:55.944Z,41.02
2022-08-03T18:50:52.031Z,40.84
2022-08-03T18:56:01.410Z,41.64
2022-08-03T19:00:56.500Z,40.98
2022-08-03T19:05:56.193Z,41.29
2022-08-03T19:10:57.852Z,41.39
2022-08-03T19:15:51.487Z,41.80
2022-08-03T19:20:46.799Z,42.91
2022-08-03T19:25:44.621Z,42.52
2022-08-03T19:30:46.287Z,43.42
2022-08-03T19:35:51.371Z,43.03
2022-08-03T19:40:45.400Z,43.15
2022-08-03T19:46:04.977Z,43.54
2022-08-03T19:50:45.281Z,44.06
2022-08-03T19:55:48.873Z,44.35
2022-08-03T20:00:48.558Z,44.57
2022-08-03T20:05:45.061Z,45.56
2022-08-03T20:10:45.002Z,45.85
2022-08-03T20:15:44.743Z,46.44
2022-08-03T20:20:43.874Z,46.17
2022-08-03T20:25:48.710Z,46.86
2022-08-03T20:30:46.466Z,46.37
2022-08-03T20:35:45.945Z,46.69
2022-08-03T20:40:44.651Z,47.28
2022-08-03T20:45:59.416Z,47.28
2022-08-03T20:50:44.532Z,47.60
2022-08-03T20:55:47.628Z,47.79
2022-08-03T21:00:44.429Z,49.01
2022-08-03T21:05:48.455Z,48.41
2022-08-03T21:10:44.305Z,48.90
2022-08-03T21:13:04.463Z,39.69
2022-08-03T21:16:06.614Z,49.32
2022-08-03T21:20:44.286Z,49.32
2022-08-03T21:25:43.141Z,49.72
2022-08-03T21:30:43.065Z,50.04
2022-08-03T21:35:43.005Z,50.34
2022-08-03T21:40:42.948Z,50.73
2022-08-03T21:45:42.876Z,51.13
2022-08-03T21:50:42.789Z,50.53
2022-08-03T21:55:42.731Z,50.66
2022-08-03T22:00:42.679Z,51.05
2022-08-03T22:05:43.866Z,51.05
2022-08-03T22:10:42.550Z,51.47
2022-08-03T22:15:42.477Z,51.77
2022-08-03T22:20:42.418Z,51.77
2022-08-03T22:25:42.366Z,51.70
2022-08-03T22:30:42.296Z,51.79
2022-08-03T22:35:47.495Z,51.89
2022-08-03T22:40:43.264Z,52.49
2022-08-03T22:46:07.190Z,52.29
2022-08-03T22:50:43.070Z,51.92
2022-08-03T22:55:41.996Z,52.31
2022-08-03T23:00:41.913Z,52.02
2022-08-03T23:06:00.873Z,51.75
2022-08-03T23:10:46.851Z,52.04
2022-08-03T23:15:41.736Z,52.34
2022-08-03T23:20:41.660Z,52.54
2022-08-03T23:25:41.651Z,52.56
2022-08-03T23:30:41.552Z,52.56
2022-08-03T23:36:17.300Z,52.76
2022-08-03T23:40:42.423Z,52.98
2022-08-03T23:45:41.362Z,53.38
2022-08-03T23:50:41.308Z,53.48
2022-08-03T23:55:41.239Z,53.88
